Time;durP1;ratioP1;P1;durP2;ratioP2;P2;SDS_P1;SDS_P2;PMS_P1;PMS_P2;Temp;Humidity;BMP_temperature;BMP_pressure;BME280_temperature;BME280_humidity;BME280_pressure;Samples;Min_cycle;Max_cycle;Signal;HPM_P1;HPM_P2
2022/06/26 00:01:22;;;;;;;;;5.67;3.67;;;;;;;;5119503;27;45299;-71
2022/06/26 00:03:48;;;;;;;;;5.33;5.33;;;;;;;;5119833;27;45421;-70
2022/06/26 00:06:14;;;;;;;;;5.00;3.00;;;;;;;;5119058;27;46455;-70
2022/06/26 00:08:39;;;;;;;;;4.33;4.00;;;;;;;;5118990;27;45435;-70
2022/06/26 00:11:04;;;;;;;;;5.00;5.00;;;;;;;;5119468;27;45434;-70
2022/06/26 00:13:29;;;;;;;;;3.33;3.33;;;;;;;;5119484;27;45333;-70
2022/06/26 00:15:55;;;;;;;;;6.00;5.00;;;;;;;;5119104;27;45416;-69
2022/06/26 00:18:20;;;;;;;;;3.00;3.00;;;;;;;;5116192;27;45354;-72
2022/06/26 00:20:45;;;;;;;;;6.67;5.00;;;;;;;;5107407;27;45236;-69
2022/06/26 00:23:10;;;;;;;;;4.00;4.00;;;;;;;;5098677;27;45407;-72
2022/06/26 00:25:36;;;;;;;;;3.67;3.67;;;;;;;;5098207;27;47228;-68
2022/06/26 00:28:01;;;;;;;;;8.00;6.33;;;;;;;;5098416;27;45420;-69
2022/06/26 00:30:26;;;;;;;;;2.00;2.00;;;;;;;;5098299;27;45322;-68
2022/06/26 00:32:51;;;;;;;;;2.00;2.00;;;;;;;;5097390;27;45345;-70
2022/06/26 00:35:17;;;;;;;;;3.00;3.00;;;;;;;;5098355;27;45355;-68
2022/06/26 00:37:42;;;;;;;;;5.33;4.67;;;;;;;;5098142;27;45398;-67
2022/06/26 00:40:08;;;;;;;;;3.00;3.00;;;;;;;;5098473;27;45377;-67
2022/06/26 00:42:33;;;;;;;;;3.33;3.33;;;;;;;;5098328;27;45311;-67
2022/06/26 00:44:58;;;;;;;;;3.00;3.00;;;;;;;;5097937;27;46441;-67
2022/06/26 00:47:24;;;;;;;;;3.00;3.00;;;;;;;;5098121;27;45259;-72
2022/06/26 00:49:49;;;;;;;;;2.00;2.00;;;;;;;;5105448;27;45318;-69
2022/06/26 00:52:15;;;;;;;;;2.33;2.33;;;;;;;;5100522;27;45353;-68
2022/06/26 00:54:41;;;;;;;;;5.00;2.00;;;;;;;;5097686;27;46351;-69
2022/06/26 00:57:06;;;;;;;;;4.33;3.33;;;;;;;;5097946;27;45276;-69
2022/06/26 00:59:31;;;;;;;;;2.00;2.00;;;;;;;;5096528;27;45215;-69
2022/06/26 01:01:57;;;;;;;;;5.00;3.67;;;;;;;;5097310;27;45321;-69
2022/06/26 01:04:22;;;;;;;;;3.00;3.00;;;;;;;;5097875;27;45845;-69
2022/06/26 01:06:48;;;;;;;;;6.00;5.67;;;;;;;;5096310;27;45389;-69
2022/06/26 01:09:13;;;;;;;;;3.67;2.00;;;;;;;;5097584;27;45739;-69
2022/06/26 01:11:41;;;;;;;;;4.00;4.00;;;;;;;;5098124;27;45358;-68
2022/06/26 01:14:07;;;;;;;;;2.00;2.00;;;;;;;;5097616;27;45530;-68
2022/06/26 01:16:32;;;;;;;;;5.00;4.67;;;;;;;;5097266;27;45412;-69
2022/06/26 01:18:58;;;;;;;;;3.33;3.33;;;;;;;;5097793;27;45200;-69
2022/06/26 01:21:24;;;;;;;;;4.00;4.00;;;;;;;;5098014;27;45321;-69
2022/06/26 01:23:51;;;;;;;;;8.33;8.33;;;;;;;;5097222;27;45999;-69
2022/06/26 01:26:17;;;;;;;;;5.00;2.33;;;;;;;;5097304;27;45370;-69
2022/06/26 01:28:42;;;;;;;;;4.00;4.00;;;;;;;;5097785;27;45354;-69
2022/06/26 01:31:07;;;;;;;;;5.00;1.33;;;;;;;;5097646;27;45545;-68
2022/06/26 01:33:34;;;;;;;;;2.33;2.33;;;;;;;;5097523;27;46359;-68
2022/06/26 01:36:00;;;;;;;;;4.00;2.33;;;;;;;;5097649;27;45352;-68
2022/06/26 01:38:25;;;;;;;;;5.33;3.33;;;;;;;;5097483;27;45424;-68
2022/06/26 01:40:52;;;;;;;;;3.00;3.00;;;;;;;;5097571;27;45221;-68
2022/06/26 01:43:18;;;;;;;;;4.67;3.00;;;;;;;;5097258;27;48241;-68
2022/06/26 01:45:44;;;;;;;;;3.33;3.33;;;;;;;;5100453;27;45174;-68
2022/06/26 01:48:10;;;;;;;;;3.00;3.00;;;;;;;;5101139;27;45317;-68
2022/06/26 01:50:35;;;;;;;;;3.00;2.33;;;;;;;;5100220;27;45351;-67
2022/06/26 01:53:00;;;;;;;;;2.33;2.00;;;;;;;;5100621;27;45487;-68
2022/06/26 01:55:26;;;;;;;;;3.00;1.67;;;;;;;;5100701;27;45243;-68
2022/06/26 01:57:51;;;;;;;;;5.00;3.67;;;;;;;;5100676;27;45147;-68
2022/06/26 02:00:16;;;;;;;;;4.67;3.00;;;;;;;;5100837;27;45391;-68
2022/06/26 02:02:41;;;;;;;;;3.33;3.33;;;;;;;;5100455;27;45372;-68
2022/06/26 02:05:07;;;;;;;;;9.33;5.67;;;;;;;;5100403;27;45199;-68
2022/06/26 02:07:32;;;;;;;;;2.00;2.00;;;;;;;;5100718;27;45232;-68
2022/06/26 02:15:25;;;;;;;;;2.67;2.67;;;;;;;;5100265;27;45195;-68
2022/06/26 02:17:50;;;;;;;;;0.67;0.67;;;;;;;;5100420;27;45312;-68
2022/06/26 02:20:15;;;;;;;;;2.00;2.00;;;;;;;;5100480;27;45348;-68
2022/06/26 02:22:41;;;;;;;;;2.00;2.00;;;;;;;;5100276;27;46063;-68
2022/06/26 02:25:08;;;;;;;;;4.33;4.33;;;;;;;;5100085;27;45747;-68
2022/06/26 02:27:33;;;;;;;;;2.00;2.00;;;;;;;;5100427;27;45358;-68
2022/06/26 02:29:58;;;;;;;;;4.33;3.00;;;;;;;;5100215;27;45460;-68
2022/06/26 02:32:24;;;;;;;;;3.00;2.00;;;;;;;;5100133;27;46470;-70
2022/06/26 02:34:49;;;;;;;;;2.00;2.00;;;;;;;;5099924;27;45420;-70
2022/06/26 02:37:14;;;;;;;;;4.33;2.00;;;;;;;;5100033;27;45429;-69
2022/06/26 02:39:39;;;;;;;;;2.00;2.00;;;;;;;;5100004;27;45273;-68
2022/06/26 02:42:05;;;;;;;;;1.33;1.33;;;;;;;;5099846;27;45452;-69
2022/06/26 02:44:30;;;;;;;;;2.33;2.00;;;;;;;;5099822;27;45386;-68
2022/06/26 02:46:55;;;;;;;;;5.00;2.00;;;;;;;;5100059;27;45602;-69
2022/06/26 02:49:20;;;;;;;;;2.33;2.00;;;;;;;;5099922;27;45600;-69
2022/06/26 02:51:46;;;;;;;;;2.67;2.67;;;;;;;;5099729;27;46200;-69
2022/06/26 02:54:11;;;;;;;;;5.00;2.00;;;;;;;;5099473;27;45339;-68
2022/06/26 02:56:36;;;;;;;;;4.00;2.00;;;;;;;;5098581;27;45323;-68
2022/06/26 02:59:01;;;;;;;;;2.00;1.00;;;;;;;;5099718;27;45347;-68
2022/06/26 03:01:27;;;;;;;;;4.33;4.33;;;;;;;;5099405;27;46562;-68
2022/06/26 03:03:52;;;;;;;;;2.33;2.00;;;;;;;;5099657;27;45309;-68
2022/06/26 03:06:17;;;;;;;;;2.00;2.00;;;;;;;;5099583;27;45365;-68
2022/06/26 03:08:42;;;;;;;;;3.00;2.00;;;;;;;;5099575;27;45490;-68
2022/06/26 03:11:07;;;;;;;;;2.00;2.00;;;;;;;;5099295;27;46514;-68
2022/06/26 03:13:33;;;;;;;;;3.00;2.00;;;;;;;;5099278;27;45409;-68
2022/06/26 03:15:58;;;;;;;;;3.33;3.00;;;;;;;;5099475;27;45449;-68
2022/06/26 03:18:23;;;;;;;;;2.00;1.67;;;;;;;;5099460;27;45283;-68
2022/06/26 03:20:48;;;;;;;;;3.00;1.00;;;;;;;;5099259;27;45605;-68
2022/06/26 03:23:14;;;;;;;;;2.67;2.67;;;;;;;;5099083;27;45330;-69
2022/06/26 03:25:39;;;;;;;;;1.67;1.67;;;;;;;;5099010;27;45283;-69
2022/06/26 03:28:05;;;;;;;;;2.00;2.00;;;;;;;;5099528;27;45406;-68
2022/06/26 03:30:30;;;;;;;;;3.00;2.67;;;;;;;;5098930;27;46521;-67
2022/06/26 03:32:55;;;;;;;;;1.33;1.00;;;;;;;;5099091;27;45408;-69
2022/06/26 03:35:20;;;;;;;;;3.00;1.00;;;;;;;;5097622;27;45272;-68
2022/06/26 03:37:46;;;;;;;;;5.00;2.33;;;;;;;;5099109;27;45422;-69
2022/06/26 03:40:11;;;;;;;;;1.00;1.00;;;;;;;;5098637;27;46484;-68
2022/06/26 03:42:37;;;;;;;;;3.00;3.00;;;;;;;;5098537;27;45260;-69
2022/06/26 03:45:03;;;;;;;;;3.00;2.67;;;;;;;;5099025;27;45349;-68
2022/06/26 03:47:28;;;;;;;;;2.00;2.00;;;;;;;;5098970;27;45493;-68
2022/06/26 03:49:54;;;;;;;;;2.00;2.00;;;;;;;;5098637;27;45509;-68
2022/06/26 03:52:20;;;;;;;;;2.67;2.00;;;;;;;;5098741;27;45540;-68
2022/06/26 03:54:45;;;;;;;;;1.67;1.67;;;;;;;;5098616;27;45469;-69
2022/06/26 03:57:11;;;;;;;;;3.00;2.67;;;;;;;;5099024;27;45307;-68
2022/06/26 03:59:36;;;;;;;;;4.00;2.33;;;;;;;;5098263;27;45525;-68
2022/06/26 04:02:02;;;;;;;;;4.33;3.00;;;;;;;;5098629;27;45323;-69
2022/06/26 04:04:27;;;;;;;;;3.00;1.33;;;;;;;;5098801;27;45353;-68
2022/06/26 04:06:52;;;;;;;;;2.33;2.33;;;;;;;;5098489;27;45385;-68
2022/06/26 04:09:18;;;;;;;;;5.00;3.33;;;;;;;;5098378;27;46411;-69
2022/06/26 04:11:43;;;;;;;;;2.67;2.67;;;;;;;;5096960;27;45313;-68
2022/06/26 04:14:08;;;;;;;;;3.67;2.00;;;;;;;;5098441;27;45238;-68
2022/06/26 04:16:34;;;;;;;;;1.67;1.67;;;;;;;;5098941;27;45359;-68
2022/06/26 04:18:59;;;;;;;;;3.00;3.00;;;;;;;;5098205;27;45469;-68
2022/06/26 04:21:24;;;;;;;;;3.67;2.33;;;;;;;;5098533;27;45359;-69
2022/06/26 04:23:49;;;;;;;;;106.50;102.75;;;;;;;;5098467;27;45177;-68
2022/06/26 04:26:14;;;;;;;;;8.67;5.67;;;;;;;;5098293;27;45616;-68
2022/06/26 04:28:40;;;;;;;;;10.00;9.00;;;;;;;;5098397;27;45458;-68
2022/06/26 04:31:05;;;;;;;;;5.67;4.33;;;;;;;;5098022;27;45385;-68
2022/06/26 04:33:30;;;;;;;;;6.67;5.00;;;;;;;;5098344;27;45247;-68
2022/06/26 04:35:55;;;;;;;;;4.00;2.33;;;;;;;;5098389;27;45409;-68
2022/06/26 04:38:21;;;;;;;;;4.00;4.00;;;;;;;;5097818;27;46579;-68
2022/06/26 04:40:47;;;;;;;;;3.00;3.00;;;;;;;;5098033;27;45273;-68
2022/06/26 04:43:12;;;;;;;;;6.33;4.67;;;;;;;;5097972;27;45239;-68
2022/06/26 04:45:37;;;;;;;;;4.33;4.33;;;;;;;;5098228;27;45271;-68
2022/06/26 04:48:02;;;;;;;;;3.00;2.67;;;;;;;;5097809;27;46475;-68
2022/06/26 04:50:28;;;;;;;;;5.00;4.00;;;;;;;;5097839;27;45390;-68
2022/06/26 04:52:53;;;;;;;;;7.33;4.00;;;;;;;;5098079;27;45335;-68
2022/06/26 04:55:18;;;;;;;;;5.33;5.00;;;;;;;;5097738;27;45292;-68
2022/06/26 04:57:44;;;;;;;;;4.67;4.00;;;;;;;;5097725;27;45397;-68
2022/06/26 05:00:10;;;;;;;;;5.00;5.00;;;;;;;;5097306;27;45436;-68
2022/06/26 05:02:36;;;;;;;;;4.00;4.00;;;;;;;;5097829;27;45489;-68
2022/06/26 05:05:01;;;;;;;;;4.67;4.67;;;;;;;;5097880;27;45334;-67
2022/06/26 05:07:26;;;;;;;;;4.33;4.00;;;;;;;;5097449;27;45395;-68
2022/06/26 05:09:52;;;;;;;;;6.00;4.33;;;;;;;;5097644;27;45437;-68
2022/06/26 05:12:17;;;;;;;;;4.00;4.00;;;;;;;;5097833;27;45437;-68
2022/06/26 05:14:42;;;;;;;;;5.67;4.33;;;;;;;;5097711;27;45382;-68
2022/06/26 05:17:09;;;;;;;;;5.00;4.00;;;;;;;;5097313;27;46396;-68
2022/06/26 05:19:35;;;;;;;;;6.00;3.67;;;;;;;;5097576;27;45326;-67
2022/06/26 05:22:02;;;;;;;;;3.00;3.00;;;;;;;;5101462;27;45208;-68
2022/06/26 05:24:27;;;;;;;;;5.33;4.00;;;;;;;;5101228;27;45367;-68
2022/06/26 05:26:52;;;;;;;;;3.00;3.00;;;;;;;;5100899;27;45262;-69
2022/06/26 05:29:17;;;;;;;;;7.00;4.00;;;;;;;;5100995;27;45271;-69
2022/06/26 05:31:43;;;;;;;;;3.00;3.00;;;;;;;;5100905;27;45355;-68
2022/06/26 05:34:08;;;;;;;;;4.67;3.67;;;;;;;;5101465;27;45438;-68
2022/06/26 05:36:33;;;;;;;;;5.00;3.33;;;;;;;;5100760;27;46467;-68
2022/06/26 05:38:58;;;;;;;;;4.33;4.00;;;;;;;;5100849;27;45415;-68
2022/06/26 05:41:23;;;;;;;;;3.33;3.33;;;;;;;;5100883;27;45302;-68
2022/06/26 05:43:49;;;;;;;;;3.67;3.67;;;;;;;;5101029;27;45334;-68
2022/06/26 05:46:14;;;;;;;;;4.33;3.33;;;;;;;;5100688;27;45293;-68
2022/06/26 05:48:39;;;;;;;;;3.33;3.33;;;;;;;;5100622;27;45413;-68
2022/06/26 05:51:05;;;;;;;;;3.00;2.00;;;;;;;;5100894;27;45327;-69
2022/06/26 05:53:30;;;;;;;;;3.67;3.67;;;;;;;;5100958;27;45486;-68
2022/06/26 05:55:55;;;;;;;;;9.00;5.00;;;;;;;;5100244;27;46476;-68
2022/06/26 05:58:20;;;;;;;;;4.33;4.00;;;;;;;;5100481;27;45532;-69
2022/06/26 06:00:45;;;;;;;;;6.00;4.00;;;;;;;;5100601;27;45317;-68
2022/06/26 06:03:11;;;;;;;;;6.00;3.00;;;;;;;;5100814;27;45432;-69
2022/06/26 06:05:36;;;;;;;;;7.33;4.00;;;;;;;;5100065;27;46515;-69
2022/06/26 06:08:01;;;;;;;;;6.67;3.67;;;;;;;;5100463;27;45453;-68
2022/06/26 06:10:27;;;;;;;;;7.00;6.00;;;;;;;;5100537;27;45362;-69
2022/06/26 06:12:53;;;;;;;;;6.00;4.00;;;;;;;;5100464;27;45436;-68
2022/06/26 06:15:19;;;;;;;;;4.67;3.67;;;;;;;;5100252;27;46500;-69
2022/06/26 06:17:44;;;;;;;;;3.33;3.00;;;;;;;;5100105;27;45202;-69
2022/06/26 06:20:14;;;;;;;;;4.00;3.00;;;;;;;;5100246;27;45260;-68
2022/06/26 06:22:41;;;;;;;;;4.33;4.00;;;;;;;;5100731;27;45370;-68
2022/06/26 06:25:07;;;;;;;;;3.00;3.00;;;;;;;;5099703;27;46115;-69
2022/06/26 06:27:32;;;;;;;;;5.00;1.67;;;;;;;;5100286;27;45374;-69
2022/06/26 06:29:57;;;;;;;;;4.00;4.00;;;;;;;;5099981;27;45252;-69
2022/06/26 06:32:22;;;;;;;;;7.67;3.67;;;;;;;;5100285;27;45323;-69
2022/06/26 06:34:48;;;;;;;;;4.00;4.00;;;;;;;;5100131;27;46443;-69
2022/06/26 06:37:13;;;;;;;;;3.33;3.00;;;;;;;;5099647;27;45411;-68
2022/06/26 06:39:38;;;;;;;;;4.33;3.00;;;;;;;;5100081;27;45274;-69
2022/06/26 06:42:04;;;;;;;;;2.67;2.67;;;;;;;;5099942;27;45405;-68
2022/06/26 06:44:29;;;;;;;;;6.00;4.00;;;;;;;;5099625;27;46475;-69
2022/06/26 06:46:54;;;;;;;;;5.67;4.00;;;;;;;;5099912;27;45334;-68
2022/06/26 06:49:19;;;;;;;;;5.67;3.00;;;;;;;;5099811;27;45428;-68
2022/06/26 06:51:44;;;;;;;;;1.67;1.33;;;;;;;;5100151;27;45347;-69
2022/06/26 06:54:10;;;;;;;;;1.00;1.00;;;;;;;;5099470;27;45345;-70
2022/06/26 06:56:35;;;;;;;;;4.33;3.00;;;;;;;;5099427;27;45425;-69
2022/06/26 06:59:00;;;;;;;;;4.00;3.67;;;;;;;;5099603;27;45290;-69
2022/06/26 07:01:26;;;;;;;;;5.00;3.00;;;;;;;;5099632;27;45436;-69
2022/06/26 07:03:51;;;;;;;;;2.67;2.67;;;;;;;;5099553;27;45767;-69
2022/06/26 07:06:16;;;;;;;;;2.00;2.00;;;;;;;;5099272;27;45387;-69
2022/06/26 07:08:41;;;;;;;;;4.00;3.67;;;;;;;;5099623;27;45369;-69
2022/06/26 07:11:06;;;;;;;;;2.33;2.33;;;;;;;;5099526;27;45380;-68
2022/06/26 07:13:32;;;;;;;;;2.00;2.00;;;;;;;;5099059;27;45575;-70
2022/06/26 07:15:57;;;;;;;;;4.67;4.67;;;;;;;;5099476;27;45200;-70
2022/06/26 07:18:24;;;;;;;;;2.00;2.00;;;;;;;;5099456;27;45271;-69
2022/06/26 07:20:49;;;;;;;;;3.00;1.67;;;;;;;;5099589;27;45464;-70
2022/06/26 07:23:14;;;;;;;;;6.33;3.33;;;;;;;;5098988;27;46409;-69
2022/06/26 07:25:39;;;;;;;;;2.00;2.00;;;;;;;;5098806;27;45461;-69
2022/06/26 07:28:05;;;;;;;;;3.00;3.00;;;;;;;;5099266;27;45554;-69
2022/06/26 07:30:31;;;;;;;;;2.00;2.00;;;;;;;;5099266;27;45263;-70
2022/06/26 07:32:56;;;;;;;;;3.00;2.33;;;;;;;;5099053;27;47108;-67
2022/06/26 07:35:22;;;;;;;;;1.33;1.33;;;;;;;;5098873;27;45701;-67
2022/06/26 07:37:47;;;;;;;;;4.67;2.00;;;;;;;;5099021;27;45244;-68
2022/06/26 07:40:13;;;;;;;;;4.67;2.00;;;;;;;;5099191;27;45319;-68
2022/06/26 07:42:38;;;;;;;;;4.00;4.00;;;;;;;;5097930;27;45356;-68
2022/06/26 07:45:04;;;;;;;;;3.00;1.33;;;;;;;;5099033;27;45429;-68
2022/06/26 07:47:29;;;;;;;;;4.67;2.00;;;;;;;;5098687;27;45192;-67
2022/06/26 07:49:54;;;;;;;;;2.00;1.00;;;;;;;;5098967;27;45413;-67
2022/06/26 07:52:20;;;;;;;;;1.67;1.67;;;;;;;;5098804;27;46562;-67
2022/06/26 07:54:45;;;;;;;;;4.67;3.33;;;;;;;;5098621;27;45334;-68
2022/06/26 07:57:10;;;;;;;;;2.67;2.67;;;;;;;;5098791;27;45342;-68
2022/06/26 07:59:35;;;;;;;;;1.67;1.67;;;;;;;;5098723;27;45481;-67
2022/06/26 08:02:01;;;;;;;;;3.67;3.00;;;;;;;;5098421;27;45420;-67
2022/06/26 08:04:26;;;;;;;;;1.67;1.67;;;;;;;;5098892;27;45490;-68
2022/06/26 08:06:51;;;;;;;;;3.00;2.00;;;;;;;;5098851;27;45288;-67
2022/06/26 08:09:16;;;;;;;;;1.67;1.33;;;;;;;;5099106;27;45327;-67
2022/06/26 08:11:42;;;;;;;;;1.00;1.00;;;;;;;;5098403;27;46250;-68
2022/06/26 08:14:07;;;;;;;;;2.33;1.00;;;;;;;;5098604;27;45389;-68
2022/06/26 08:16:32;;;;;;;;;1.00;1.00;;;;;;;;5098893;27;45450;-68
2022/06/26 08:18:57;;;;;;;;;1.00;1.00;;;;;;;;5098755;27;45484;-67
2022/06/26 08:24:06;;;;;;;;;1.00;1.00;;;;;;;;5098531;27;45264;-67
2022/06/26 08:26:31;;;;;;;;;1.00;1.00;;;;;;;;5098297;27;45218;-68
2022/06/26 08:28:57;;;;;;;;;3.33;1.00;;;;;;;;5098776;27;45174;-68
2022/06/26 08:31:22;;;;;;;;;2.67;0.00;;;;;;;;5098332;27;46176;-68
2022/06/26 08:33:47;;;;;;;;;1.33;1.33;;;;;;;;5098314;27;45483;-67
2022/06/26 08:36:12;;;;;;;;;1.00;1.00;;;;;;;;5098520;27;45216;-67
2022/06/26 08:38:39;;;;;;;;;0.00;0.00;;;;;;;;5098417;27;45478;-67
2022/06/26 08:41:07;;;;;;;;;3.00;3.00;;;;;;;;5098001;27;46612;-67
2022/06/26 08:43:33;;;;;;;;;1.00;1.00;;;;;;;;5098158;27;45437;-67
2022/06/26 08:46:01;;;;;;;;;1.00;1.00;;;;;;;;5098212;27;45390;-67
2022/06/26 08:48:27;;;;;;;;;1.00;1.00;;;;;;;;5098527;27;45228;-68
2022/06/26 08:50:53;;;;;;;;;1.67;1.67;;;;;;;;5097855;27;46046;-68
2022/06/26 08:53:19;;;;;;;;;1.00;1.00;;;;;;;;5098014;27;45406;-67
2022/06/26 08:55:44;;;;;;;;;5.33;2.00;;;;;;;;5101480;27;45445;-68
2022/06/26 08:58:10;;;;;;;;;1.67;1.67;;;;;;;;5101673;27;45437;-67
2022/06/26 09:00:35;;;;;;;;;4.67;2.00;;;;;;;;5101789;27;45357;-68
2022/06/26 09:03:00;;;;;;;;;5.00;3.00;;;;;;;;5101499;27;45421;-68
2022/06/26 09:05:25;;;;;;;;;2.67;1.00;;;;;;;;5101748;27;45335;-68
2022/06/26 09:07:52;;;;;;;;;2.67;1.00;;;;;;;;5101776;27;45588;-67
2022/06/26 09:10:18;;;;;;;;;2.00;1.00;;;;;;;;5101475;27;46494;-68
2022/06/26 09:12:49;;;;;;;;;1.67;1.33;;;;;;;;5101492;27;45291;-67
2022/06/26 09:15:18;;;;;;;;;3.33;2.00;;;;;;;;5101428;27;45313;-68
2022/06/26 09:17:53;;;;;;;;;1.00;1.00;;;;;;;;5101614;27;45394;-67
2022/06/26 09:20:18;;;;;;;;;1.00;1.00;;;;;;;;5101138;27;46256;-67
2022/06/26 09:22:54;;;;;;;;;1.00;1.00;;;;;;;;5101079;27;45734;-67
2022/06/26 09:25:19;;;;;;;;;2.33;2.33;;;;;;;;5101194;27;45230;-67
2022/06/26 09:27:45;;;;;;;;;2.00;2.00;;;;;;;;5101467;27;45342;-67
2022/06/26 09:30:10;;;;;;;;;1.00;1.00;;;;;;;;5100909;27;46124;-68
2022/06/26 09:32:35;;;;;;;;;2.00;0.00;;;;;;;;5101027;27;45203;-67
2022/06/26 09:35:01;;;;;;;;;2.33;2.00;;;;;;;;5101211;27;45309;-67
2022/06/26 09:37:33;;;;;;;;;1.00;1.00;;;;;;;;5101339;27;45399;-67
2022/06/26 09:40:02;;;;;;;;;0.33;0.33;;;;;;;;5101214;27;45519;-68
2022/06/26 09:42:27;;;;;;;;;0.00;0.00;;;;;;;;5101029;27;45416;-67
2022/06/26 09:44:53;;;;;;;;;0.00;0.00;;;;;;;;5100960;27;45223;-67
2022/06/26 09:47:26;;;;;;;;;3.00;1.00;;;;;;;;5101134;27;45402;-68
2022/06/26 09:49:53;;;;;;;;;1.33;1.33;;;;;;;;5100727;27;45428;-68
2022/06/26 09:52:20;;;;;;;;;1.00;1.00;;;;;;;;5100801;27;45381;-67
2022/06/26 09:54:46;;;;;;;;;0.00;0.00;;;;;;;;5100917;27;45309;-71
2022/06/26 09:57:12;;;;;;;;;3.00;0.67;;;;;;;;5100933;27;45329;-70
2022/06/26 09:59:39;;;;;;;;;4.33;1.67;;;;;;;;5100258;27;45511;-70
2022/06/26 10:07:32;;;;;;;;;0.00;0.00;;;;;;;;5100625;27;45841;-69
2022/06/26 10:09:58;;;;;;;;;1.00;0.33;;;;;;;;5100217;27;46032;-69
2022/06/26 10:12:23;;;;;;;;;0.00;0.00;;;;;;;;5098753;27;46030;-71
2022/06/26 10:14:51;;;;;;;;;0.67;0.67;;;;;;;;5100441;27;45322;-71
2022/06/26 10:17:30;;;;;;;;;0.00;0.00;;;;;;;;5100654;27;45214;-72
2022/06/26 10:19:57;;;;;;;;;0.00;0.00;;;;;;;;5100441;27;46610;-73
2022/06/26 10:22:22;;;;;;;;;0.00;0.00;;;;;;;;5100055;27;45514;-70
2022/06/26 10:24:52;;;;;;;;;0.00;0.00;;;;;;;;5100414;27;45405;-70
2022/06/26 10:27:22;;;;;;;;;0.00;0.00;;;;;;;;5100329;27;45314;-71
2022/06/26 10:29:47;;;;;;;;;0.33;0.00;;;;;;;;5100022;27;46312;-71
2022/06/26 10:32:21;;;;;;;;;0.00;0.00;;;;;;;;5100099;27;45368;-70
2022/06/26 10:34:53;;;;;;;;;0.00;0.00;;;;;;;;5100447;27;45429;-70
2022/06/26 10:37:18;;;;;;;;;1.00;0.00;;;;;;;;5100165;27;45166;-70
2022/06/26 10:39:49;;;;;;;;;0.00;0.00;;;;;;;;5099822;27;45261;-69
2022/06/26 10:45:02;;;;;;;;;1.33;0.33;;;;;;;;5099861;27;45352;-70
2022/06/26 10:47:38;;;;;;;;;0.00;0.00;;;;;;;;5099896;27;45303;-67
2022/06/26 10:50:04;;;;;;;;;3.00;0.00;;;;;;;;5099497;27;45359;-68
2022/06/26 10:52:31;;;;;;;;;0.00;0.00;;;;;;;;5099857;27;45465;-70
2022/06/26 10:55:00;;;;;;;;;0.33;0.00;;;;;;;;5100070;27;45244;-68
2022/06/26 10:57:33;;;;;;;;;0.33;0.33;;;;;;;;5098408;27;45458;-70
2022/06/26 11:00:00;;;;;;;;;0.67;0.67;;;;;;;;5099260;27;46197;-70
2022/06/26 11:02:25;;;;;;;;;2.00;0.67;;;;;;;;5099197;27;45363;-70
2022/06/26 11:04:51;;;;;;;;;0.33;0.33;;;;;;;;5099735;27;45237;-70
2022/06/26 11:07:19;;;;;;;;;0.67;0.67;;;;;;;;5099828;27;45433;-73
2022/06/26 11:09:44;;;;;;;;;1.00;1.00;;;;;;;;5099597;27;46736;-72
2022/06/26 11:12:10;;;;;;;;;2.67;1.67;;;;;;;;5099090;27;45298;-72
2022/06/26 11:14:35;;;;;;;;;2.00;0.00;;;;;;;;5099499;27;45472;-72
2022/06/26 11:17:00;;;;;;;;;2.00;2.00;;;;;;;;5098689;27;45382;-71
2022/06/26 11:20:46;;;;;;;;;1.67;0.67;;;;;;;;5099180;27;46300;-71
2022/06/26 11:22:18;;;;;;;;;1.33;1.00;;;;;;;;5099098;27;45472;-72
2022/06/26 11:24:50;;;;;;;;;1.33;1.00;;;;;;;;5099310;27;45242;-72
2022/06/26 11:27:15;;;;;;;;;0.00;0.00;;;;;;;;5099487;27;45314;-72
2022/06/26 11:29:41;;;;;;;;;1.00;1.00;;;;;;;;5098917;27;46314;-71
2022/06/26 11:32:06;;;;;;;;;1.00;1.00;;;;;;;;5098990;27;45251;-71
2022/06/26 11:34:31;;;;;;;;;1.00;1.00;;;;;;;;5099161;27;45496;-71
2022/06/26 11:36:58;;;;;;;;;8.67;7.67;;;;;;;;5099249;27;45239;-71
2022/06/26 11:39:24;;;;;;;;;1.67;1.67;;;;;;;;5098949;27;46535;-70
2022/06/26 11:41:49;;;;;;;;;1.00;1.00;;;;;;;;5098831;27;45211;-71
2022/06/26 11:44:14;;;;;;;;;1.00;1.00;;;;;;;;5098805;27;45453;-71
2022/06/26 11:46:40;;;;;;;;;1.00;1.00;;;;;;;;5099304;27;45244;-72
2022/06/26 11:49:08;;;;;;;;;1.00;1.00;;;;;;;;5098796;27;46494;-71
2022/06/26 11:51:33;;;;;;;;;2.00;2.00;;;;;;;;5098786;27;45315;-71
2022/06/26 11:53:59;;;;;;;;;2.67;2.00;;;;;;;;5098744;27;45293;-71
2022/06/26 11:56:26;;;;;;;;;2.33;1.00;;;;;;;;5099133;27;45466;-71
2022/06/26 11:58:52;;;;;;;;;2.33;1.00;;;;;;;;5098316;27;45538;-71
2022/06/26 12:01:17;;;;;;;;;1.33;1.33;;;;;;;;5098404;27;45406;-73
2022/06/26 12:03:43;;;;;;;;;3.00;1.00;;;;;;;;5098629;27;45243;-70
2022/06/26 12:06:09;;;;;;;;;0.67;0.67;;;;;;;;5098682;27;45163;-75
2022/06/26 12:08:35;;;;;;;;;1.00;1.00;;;;;;;;5098396;27;46399;-73
2022/06/26 12:11:00;;;;;;;;;4.00;1.00;;;;;;;;5097336;27;45781;-75
2022/06/26 12:13:30;;;;;;;;;1.67;1.33;;;;;;;;5098354;27;45451;-75
2022/06/26 12:16:04;;;;;;;;;3.00;1.00;;;;;;;;5098724;27;45396;-74
2022/06/26 12:18:30;;;;;;;;;1.33;1.00;;;;;;;;5098455;27;46554;-74
2022/06/26 12:20:55;;;;;;;;;1.00;1.00;;;;;;;;5098244;27;45216;-73
2022/06/26 12:23:30;;;;;;;;;1.00;1.00;;;;;;;;5098572;27;45386;-72
2022/06/26 12:26:02;;;;;;;;;2.33;1.00;;;;;;;;5098495;27;45359;-73
2022/06/26 12:28:28;;;;;;;;;4.33;1.00;;;;;;;;5097720;27;45335;-73
2022/06/26 12:30:53;;;;;;;;;2.33;2.00;;;;;;;;5098069;27;45315;-70
2022/06/26 12:33:18;;;;;;;;;2.33;1.00;;;;;;;;5098285;27;45665;-69
2022/06/26 12:35:43;;;;;;;;;1.33;1.33;;;;;;;;5098379;27;45436;-70
2022/06/26 12:38:09;;;;;;;;;7.00;6.33;;;;;;;;5097926;27;46300;-71
2022/06/26 12:40:34;;;;;;;;;1.00;1.00;;;;;;;;5098130;27;45562;-70
2022/06/26 12:43:00;;;;;;;;;1.00;1.00;;;;;;;;5098331;27;45390;-70
2022/06/26 12:45:25;;;;;;;;;3.00;1.00;;;;;;;;5097473;27;45440;-71
2022/06/26 12:47:50;;;;;;;;;1.00;1.00;;;;;;;;5097821;27;46329;-72
2022/06/26 12:50:16;;;;;;;;;0.00;0.00;;;;;;;;5097749;27;45303;-72
2022/06/26 12:52:41;;;;;;;;;1.00;1.00;;;;;;;;5098070;27;45307;-72
2022/06/26 12:55:08;;;;;;;;;1.00;1.00;;;;;;;;5098041;27;45298;-73
2022/06/26 12:57:35;;;;;;;;;0.33;0.00;;;;;;;;5096484;27;46620;-72
2022/06/26 13:00:01;;;;;;;;;1.00;1.00;;;;;;;;5095882;27;46486;-71
2022/06/26 13:02:26;;;;;;;;;2.67;2.33;;;;;;;;5097600;27;45327;-73
2022/06/26 13:04:51;;;;;;;;;1.00;0.00;;;;;;;;5097948;27;45416;-75
2022/06/26 13:07:17;;;;;;;;;7.33;6.67;;;;;;;;5097367;27;46538;-75
2022/06/26 13:09:42;;;;;;;;;2.00;2.00;;;;;;;;5097287;27;45241;-74
2022/06/26 13:12:07;;;;;;;;;1.00;1.00;;;;;;;;5097829;27;45358;-75
2022/06/26 13:14:33;;;;;;;;;1.67;1.67;;;;;;;;5097759;27;45478;-74
2022/06/26 13:16:59;;;;;;;;;2.33;2.33;;;;;;;;5097374;27;46449;-73
2022/06/26 13:19:24;;;;;;;;;3.00;1.67;;;;;;;;5097702;27;45402;-74
2022/06/26 13:21:51;;;;;;;;;1.00;1.00;;;;;;;;5095986;27;45324;-73
2022/06/26 13:24:16;;;;;;;;;2.00;0.33;;;;;;;;5097799;27;45426;-71
2022/06/26 13:26:42;;;;;;;;;1.00;1.00;;;;;;;;5097233;27;47196;-71
2022/06/26 13:29:08;;;;;;;;;4.00;2.00;;;;;;;;5097072;27;45294;-72
2022/06/26 13:31:33;;;;;;;;;1.00;1.00;;;;;;;;5097616;27;45610;-72
2022/06/26 13:33:58;;;;;;;;;2.00;1.00;;;;;;;;5097544;27;45346;-72
2022/06/26 13:36:23;;;;;;;;;1.00;1.00;;;;;;;;5097025;27;45758;-74
2022/06/26 13:38:50;;;;;;;;;1.00;1.00;;;;;;;;5097416;27;45697;-76
2022/06/26 13:41:15;;;;;;;;;0.00;0.00;;;;;;;;5099661;27;45276;-73
2022/06/26 13:43:41;;;;;;;;;1.00;1.00;;;;;;;;5101127;27;45304;-68
2022/06/26 13:46:06;;;;;;;;;2.00;0.00;;;;;;;;5100122;27;45522;-72
2022/06/26 13:48:33;;;;;;;;;1.00;1.00;;;;;;;;5099672;27;45351;-72
2022/06/26 13:50:58;;;;;;;;;1.00;1.00;;;;;;;;5114399;27;45401;-72
2022/06/26 13:53:24;;;;;;;;;1.00;1.00;;;;;;;;5122293;27;45452;-69
2022/06/26 13:55:50;;;;;;;;;1.00;1.00;;;;;;;;5141936;27;46617;-70
2022/06/26 13:58:16;;;;;;;;;3.33;3.33;;;;;;;;5129250;27;45592;-71
2022/06/26 14:00:41;;;;;;;;;5.00;2.00;;;;;;;;5141680;27;45755;-71
2022/06/26 14:03:06;;;;;;;;;2.00;2.00;;;;;;;;5130435;27;45443;-69
2022/06/26 14:05:32;;;;;;;;;2.00;2.00;;;;;;;;5120631;27;45351;-70
2022/06/26 14:07:57;;;;;;;;;0.33;0.33;;;;;;;;5129845;27;45432;-71
2022/06/26 14:10:22;;;;;;;;;3.00;1.00;;;;;;;;5137939;27;45423;-69
2022/06/26 14:12:47;;;;;;;;;1.00;1.00;;;;;;;;5120873;27;45825;-70
2022/06/26 14:15:12;;;;;;;;;1.00;0.33;;;;;;;;5140972;27;46749;-70
2022/06/26 14:17:40;;;;;;;;;0.00;0.00;;;;;;;;5141234;27;45469;-70
2022/06/26 14:20:06;;;;;;;;;0.33;0.33;;;;;;;;5141594;27;45408;-72
2022/06/26 14:27:59;;;;;;;;;4.00;1.00;;;;;;;;5141183;27;45305;-70
2022/06/26 14:30:24;;;;;;;;;0.33;0.33;;;;;;;;5141036;27;45748;-69
2022/06/26 14:32:50;;;;;;;;;1.00;1.00;;;;;;;;5141591;27;45201;-71
2022/06/26 14:35:15;;;;;;;;;2.00;0.67;;;;;;;;5140660;27;46255;-70
2022/06/26 14:37:42;;;;;;;;;2.33;0.00;;;;;;;;5141134;27;45293;-72
2022/06/26 14:40:08;;;;;;;;;0.00;0.00;;;;;;;;5141180;27;45555;-72
2022/06/26 14:42:33;;;;;;;;;0.33;0.33;;;;;;;;5141184;27;45422;-71
2022/06/26 14:44:59;;;;;;;;;1.33;1.00;;;;;;;;5139525;27;47369;-72
2022/06/26 14:47:24;;;;;;;;;1.67;0.00;;;;;;;;5140275;27;45461;-70
2022/06/26 14:49:49;;;;;;;;;0.33;0.33;;;;;;;;5139519;27;45456;-71
2022/06/26 14:52:14;;;;;;;;;0.00;0.00;;;;;;;;5139799;27;45391;-71
2022/06/26 14:54:40;;;;;;;;;1.33;0.00;;;;;;;;5139898;27;46385;-70
2022/06/26 14:57:05;;;;;;;;;3.00;1.00;;;;;;;;5140588;27;45342;-70